Bridgend, United Kingdom
Current Conditions -  °F | °C
As of 8:50 AM on Monday 24 Nov 2014 (Local Time) from EGDX Reporting Station
Few Clouds Few Clouds  
Wind Chill: 34°   Ceiling: Unl
Heat Index: 34°   Visibility: 6mi
Dew Point: 32°   Wind: 3mph
Humidity: 93%   Direction: 30°NNE
Pressure: 30.3"   Gusts: NA
Location:  51.51°N, 3.58°W
Report Text: EGDX 240850Z 03003KT 9999 FEW020 01/M00 Q1026 BLU
Loading
Personal Weather Stations






























Interactive Weather Map New forecast layout! Learn more

10-Day Weather Forecast

Advertisements
Track Severe Weather on mobile